sensor_id;sensor_type;location;lat;lon;timestamp;temperature;humidity
59128;DHT22;44912;52.754;5.994;2022-10-30T00:00:39;14.60;99.90
59128;DHT22;44912;52.754;5.994;2022-10-30T00:03:05;14.60;99.90
59128;DHT22;44912;52.754;5.994;2022-10-30T00:05:31;14.60;99.90
59128;DHT22;44912;52.754;5.994;2022-10-30T00:07:57;14.60;99.90
59128;DHT22;44912;52.754;5.994;2022-10-30T00:10:24;14.60;99.90
59128;DHT22;44912;52.754;5.994;2022-10-30T00:12:50;14.50;99.90
59128;DHT22;44912;52.754;5.994;2022-10-30T00:15:16;14.50;99.90
59128;DHT22;44912;52.754;5.994;2022-10-30T00:17:41;14.50;99.90
59128;DHT22;44912;52.754;5.994;2022-10-30T00:20:07;14.50;99.90
59128;DHT22;44912;52.754;5.994;2022-10-30T00:22:34;14.50;99.90
59128;DHT22;44912;52.754;5.994;2022-10-30T00:25:00;14.50;99.90
59128;DHT22;44912;52.754;5.994;2022-10-30T00:27:26;14.40;99.90
59128;DHT22;44912;52.754;5.994;2022-10-30T00:29:52;14.30;99.90
59128;DHT22;44912;52.754;5.994;2022-10-30T00:32:17;14.20;99.90
59128;DHT22;44912;52.754;5.994;2022-10-30T00:34:43;14.20;99.90
59128;DHT22;44912;52.754;5.994;2022-10-30T00:37:08;14.10;99.90
59128;DHT22;44912;52.754;5.994;2022-10-30T00:39:34;14.10;99.90
59128;DHT22;44912;52.754;5.994;2022-10-30T00:42:00;14.10;99.90
59128;DHT22;44912;52.754;5.994;2022-10-30T00:44:49;14.10;99.90
59128;DHT22;44912;52.754;5.994;2022-10-30T00:47:26;14.10;99.90
59128;DHT22;44912;52.754;5.994;2022-10-30T00:50:06;14.10;99.90
59128;DHT22;44912;52.754;5.994;2022-10-30T00:53:01;14.10;99.90
59128;DHT22;44912;52.754;5.994;2022-10-30T00:55:29;14.20;99.90
59128;DHT22;44912;52.754;5.994;2022-10-30T00:57:56;14.20;99.90
59128;DHT22;44912;52.754;5.994;2022-10-30T01:00:22;14.20;99.90
59128;DHT22;44912;52.754;5.994;2022-10-30T01:02:49;14.20;99.90
59128;DHT22;44912;52.754;5.994;2022-10-30T01:05:17;14.20;99.90
59128;DHT22;44912;52.754;5.994;2022-10-30T01:07:44;14.20;99.90
59128;DHT22;44912;52.754;5.994;2022-10-30T01:10:10;14.30;99.90
59128;DHT22;44912;52.754;5.994;2022-10-30T01:12:37;14.40;99.90
59128;DHT22;44912;52.754;5.994;2022-10-30T01:15:03;14.40;99.90
59128;DHT22;44912;52.754;5.994;2022-10-30T01:17:43;14.40;99.90
59128;DHT22;44912;52.754;5.994;2022-10-30T01:25:47;14.50;99.90
59128;DHT22;44912;52.754;5.994;2022-10-30T01:31:02;14.50;99.90
59128;DHT22;44912;52.754;5.994;2022-10-30T01:36:19;14.40;99.90
59128;DHT22;44912;52.754;5.994;2022-10-30T01:38:55;14.40;99.90
59128;DHT22;44912;52.754;5.994;2022-10-30T01:41:22;14.40;99.90
59128;DHT22;44912;52.754;5.994;2022-10-30T01:43:52;14.40;99.90
59128;DHT22;44912;52.754;5.994;2022-10-30T01:46:33;14.30;99.90
59128;DHT22;44912;52.754;5.994;2022-10-30T01:49:30;14.20;99.90
59128;DHT22;44912;52.754;5.994;2022-10-30T01:52:12;14.10;99.90
59128;DHT22;44912;52.754;5.994;2022-10-30T01:58:05;14.00;99.90
59128;DHT22;44912;52.754;5.994;2022-10-30T02:00:31;14.00;99.90
59128;DHT22;44912;52.754;5.994;2022-10-30T02:02:57;14.00;99.90
59128;DHT22;44912;52.754;5.994;2022-10-30T02:05:37;14.00;99.90
59128;DHT22;44912;52.754;5.994;2022-10-30T02:08:04;14.10;99.90
59128;DHT22;44912;52.754;5.994;2022-10-30T02:10:30;14.00;99.90
59128;DHT22;44912;52.754;5.994;2022-10-30T02:12:56;14.10;99.90
59128;DHT22;44912;52.754;5.994;2022-10-30T02:15:22;14.10;99.90
59128;DHT22;44912;52.754;5.994;2022-10-30T02:17:47;14.10;99.90
59128;DHT22;44912;52.754;5.994;2022-10-30T02:20:21;14.10;99.90
59128;DHT22;44912;52.754;5.994;2022-10-30T02:22:46;14.10;99.90
59128;DHT22;44912;52.754;5.994;2022-10-30T02:25:13;14.10;99.90
59128;DHT22;44912;52.754;5.994;2022-10-30T02:27:39;14.10;99.90
59128;DHT22;44912;52.754;5.994;2022-10-30T02:30:05;14.10;99.90
59128;DHT22;44912;52.754;5.994;2022-10-30T02:32:31;14.10;99.90
59128;DHT22;44912;52.754;5.994;2022-10-30T02:34:56;14.00;99.90
59128;DHT22;44912;52.754;5.994;2022-10-30T02:37:22;13.90;99.90
59128;DHT22;44912;52.754;5.994;2022-10-30T02:39:49;13.90;99.90
59128;DHT22;44912;52.754;5.994;2022-10-30T02:42:14;13.90;99.90
59128;DHT22;44912;52.754;5.994;2022-10-30T02:44:40;13.90;99.90
59128;DHT22;44912;52.754;5.994;2022-10-30T02:47:05;13.90;99.90
59128;DHT22;44912;52.754;5.994;2022-10-30T02:49:31;13.80;99.90
59128;DHT22;44912;52.754;5.994;2022-10-30T02:52:05;13.80;99.90
59128;DHT22;44912;52.754;5.994;2022-10-30T02:54:30;13.70;99.90
59128;DHT22;44912;52.754;5.994;2022-10-30T02:56:56;13.70;99.90
59128;DHT22;44912;52.754;5.994;2022-10-30T02:59:21;13.60;99.90
59128;DHT22;44912;52.754;5.994;2022-10-30T03:01:47;13.40;99.90
59128;DHT22;44912;52.754;5.994;2022-10-30T03:04:13;13.30;99.90
59128;DHT22;44912;52.754;5.994;2022-10-30T03:06:38;13.20;99.90
59128;DHT22;44912;52.754;5.994;2022-10-30T03:09:04;13.20;99.90
59128;DHT22;44912;52.754;5.994;2022-10-30T03:11:29;13.10;99.90
59128;DHT22;44912;52.754;5.994;2022-10-30T03:13:55;13.10;99.90
59128;DHT22;44912;52.754;5.994;2022-10-30T03:16:22;13.10;99.90
59128;DHT22;44912;52.754;5.994;2022-10-30T03:18:48;13.00;99.90
59128;DHT22;44912;52.754;5.994;2022-10-30T03:21:17;13.00;99.90
59128;DHT22;44912;52.754;5.994;2022-10-30T03:23:43;13.00;99.90
59128;DHT22;44912;52.754;5.994;2022-10-30T03:26:09;12.90;99.90
59128;DHT22;44912;52.754;5.994;2022-10-30T03:28:35;12.80;99.90
59128;DHT22;44912;52.754;5.994;2022-10-30T03:31:03;12.80;99.90
59128;DHT22;44912;52.754;5.994;2022-10-30T03:33:30;12.80;99.90
59128;DHT22;44912;52.754;5.994;2022-10-30T03:35:56;12.80;99.90
59128;DHT22;44912;52.754;5.994;2022-10-30T03:38:22;12.70;99.90
59128;DHT22;44912;52.754;5.994;2022-10-30T03:40:48;12.70;99.90
59128;DHT22;44912;52.754;5.994;2022-10-30T03:43:13;12.70;99.90
59128;DHT22;44912;52.754;5.994;2022-10-30T03:45:39;12.60;99.90
59128;DHT22;44912;52.754;5.994;2022-10-30T03:48:05;12.50;99.90
59128;DHT22;44912;52.754;5.994;2022-10-30T03:50:31;12.40;99.90
59128;DHT22;44912;52.754;5.994;2022-10-30T03:52:57;12.40;99.90
59128;DHT22;44912;52.754;5.994;2022-10-30T03:55:23;12.50;99.90
59128;DHT22;44912;52.754;5.994;2022-10-30T03:57:49;12.50;99.90
59128;DHT22;44912;52.754;5.994;2022-10-30T04:00:16;12.50;99.90
59128;DHT22;44912;52.754;5.994;2022-10-30T04:02:46;12.50;99.90
59128;DHT22;44912;52.754;5.994;2022-10-30T04:05:13;12.50;99.90
59128;DHT22;44912;52.754;5.994;2022-10-30T04:07:39;12.40;99.90
59128;DHT22;44912;52.754;5.994;2022-10-30T04:10:05;12.40;99.90
59128;DHT22;44912;52.754;5.994;2022-10-30T04:12:30;12.40;99.90
59128;DHT22;44912;52.754;5.994;2022-10-30T04:14:56;12.50;99.90
59128;DHT22;44912;52.754;5.994;2022-10-30T04:17:21;12.50;99.90
59128;DHT22;44912;52.754;5.994;2022-10-30T04:19:47;12.50;99.90
59128;DHT22;44912;52.754;5.994;2022-10-30T04:22:12;12.60;99.90
59128;DHT22;44912;52.754;5.994;2022-10-30T04:24:38;12.70;99.90
59128;DHT22;44912;52.754;5.994;2022-10-30T04:27:04;12.70;99.90
59128;DHT22;44912;52.754;5.994;2022-10-30T04:29:30;12.70;99.90
59128;DHT22;44912;52.754;5.994;2022-10-30T04:31:55;12.60;99.90
59128;DHT22;44912;52.754;5.994;2022-10-30T04:34:21;12.60;99.90
59128;DHT22;44912;52.754;5.994;2022-10-30T04:36:46;12.70;99.90
59128;DHT22;44912;52.754;5.994;2022-10-30T04:39:12;12.80;99.90
59128;DHT22;44912;52.754;5.994;2022-10-30T04:41:37;12.80;99.90
59128;DHT22;44912;52.754;5.994;2022-10-30T04:44:03;12.90;99.90
59128;DHT22;44912;52.754;5.994;2022-10-30T04:46:30;12.90;99.90
59128;DHT22;44912;52.754;5.994;2022-10-30T04:48:55;12.90;99.90
59128;DHT22;44912;52.754;5.994;2022-10-30T04:51:22;12.90;99.90
59128;DHT22;44912;52.754;5.994;2022-10-30T04:53:48;12.90;99.90
59128;DHT22;44912;52.754;5.994;2022-10-30T04:56:14;12.90;99.90
59128;DHT22;44912;52.754;5.994;2022-10-30T04:58:40;12.90;99.90
59128;DHT22;44912;52.754;5.994;2022-10-30T05:01:06;12.90;99.90
59128;DHT22;44912;52.754;5.994;2022-10-30T05:03:32;12.90;99.90
59128;DHT22;44912;52.754;5.994;2022-10-30T05:06:24;12.90;99.90
59128;DHT22;44912;52.754;5.994;2022-10-30T05:08:50;13.00;99.90
59128;DHT22;44912;52.754;5.994;2022-10-30T05:11:16;13.00;99.90
59128;DHT22;44912;52.754;5.994;2022-10-30T05:13:42;13.00;99.90
59128;DHT22;44912;52.754;5.994;2022-10-30T05:16:08;13.00;99.90
59128;DHT22;44912;52.754;5.994;2022-10-30T05:18:34;13.00;99.90
59128;DHT22;44912;52.754;5.994;2022-10-30T05:20:59;13.00;99.90
59128;DHT22;44912;52.754;5.994;2022-10-30T05:23:25;13.00;99.90
59128;DHT22;44912;52.754;5.994;2022-10-30T05:25:50;13.00;99.90
59128;DHT22;44912;52.754;5.994;2022-10-30T05:28:16;13.00;99.90
59128;DHT22;44912;52.754;5.994;2022-10-30T05:30:42;13.00;99.90
59128;DHT22;44912;52.754;5.994;2022-10-30T05:33:10;13.00;99.90
59128;DHT22;44912;52.754;5.994;2022-10-30T05:35:36;12.90;99.90
59128;DHT22;44912;52.754;5.994;2022-10-30T05:38:04;13.00;99.90
59128;DHT22;44912;52.754;5.994;2022-10-30T05:40:30;12.90;99.90
59128;DHT22;44912;52.754;5.994;2022-10-30T05:42:56;12.80;99.90
59128;DHT22;44912;52.754;5.994;2022-10-30T05:45:22;12.80;99.90
59128;DHT22;44912;52.754;5.994;2022-10-30T05:50:19;12.80;99.90
59128;DHT22;44912;52.754;5.994;2022-10-30T05:52:45;12.80;99.90
59128;DHT22;44912;52.754;5.994;2022-10-30T05:55:10;12.80;99.90
59128;DHT22;44912;52.754;5.994;2022-10-30T05:57:36;12.80;99.90
59128;DHT22;44912;52.754;5.994;2022-10-30T06:00:02;12.80;99.90
59128;DHT22;44912;52.754;5.994;2022-10-30T06:02:28;12.80;99.90
59128;DHT22;44912;52.754;5.994;2022-10-30T06:04:53;12.70;99.90
59128;DHT22;44912;52.754;5.994;2022-10-30T06:07:19;12.60;99.90
59128;DHT22;44912;52.754;5.994;2022-10-30T06:09:44;12.40;99.90
59128;DHT22;44912;52.754;5.994;2022-10-30T06:12:10;12.40;99.90
59128;DHT22;44912;52.754;5.994;2022-10-30T06:14:35;12.40;99.90
59128;DHT22;44912;52.754;5.994;2022-10-30T06:17:01;12.40;99.90
59128;DHT22;44912;52.754;5.994;2022-10-30T06:19:26;12.50;99.90
59128;DHT22;44912;52.754;5.994;2022-10-30T06:21:52;12.50;99.90
59128;DHT22;44912;52.754;5.994;2022-10-30T06:24:19;12.50;99.90
59128;DHT22;44912;52.754;5.994;2022-10-30T06:26:44;12.50;99.90
59128;DHT22;44912;52.754;5.994;2022-10-30T06:29:10;12.60;99.90
59128;DHT22;44912;52.754;5.994;2022-10-30T06:31:35;12.60;99.90
59128;DHT22;44912;52.754;5.994;2022-10-30T06:34:01;12.60;99.90
59128;DHT22;44912;52.754;5.994;2022-10-30T06:36:26;12.70;99.90
59128;DHT22;44912;52.754;5.994;2022-10-30T06:38:52;12.70;99.90
59128;DHT22;44912;52.754;5.994;2022-10-30T06:41:18;12.70;99.90
59128;DHT22;44912;52.754;5.994;2022-10-30T06:43:43;12.70;99.90
59128;DHT22;44912;52.754;5.994;2022-10-30T06:46:09;12.70;99.90
59128;DHT22;44912;52.754;5.994;2022-10-30T06:48:34;12.80;99.90
59128;DHT22;44912;52.754;5.994;2022-10-30T06:51:00;12.80;99.90
59128;DHT22;44912;52.754;5.994;2022-10-30T06:53:27;12.80;99.90
59128;DHT22;44912;52.754;5.994;2022-10-30T06:56:01;12.80;99.90
59128;DHT22;44912;52.754;5.994;2022-10-30T06:58:27;12.90;99.90
59128;DHT22;44912;52.754;5.994;2022-10-30T07:00:53;12.90;99.90
59128;DHT22;44912;52.754;5.994;2022-10-30T07:03:19;12.90;99.90
59128;DHT22;44912;52.754;5.994;2022-10-30T07:05:45;12.90;99.90
59128;DHT22;44912;52.754;5.994;2022-10-30T07:08:11;12.90;99.90
59128;DHT22;44912;52.754;5.994;2022-10-30T07:10:37;12.90;99.90
59128;DHT22;44912;52.754;5.994;2022-10-30T07:13:02;13.00;99.90
59128;DHT22;44912;52.754;5.994;2022-10-30T07:15:28;13.00;99.90
59128;DHT22;44912;52.754;5.994;2022-10-30T07:17:59;12.90;99.90
59128;DHT22;44912;52.754;5.994;2022-10-30T07:20:27;12.90;99.90
59128;DHT22;44912;52.754;5.994;2022-10-30T07:22:52;12.90;99.90
59128;DHT22;44912;52.754;5.994;2022-10-30T07:25:18;12.90;99.90
59128;DHT22;44912;52.754;5.994;2022-10-30T07:27:49;12.90;99.90
59128;DHT22;44912;52.754;5.994;2022-10-30T07:30:17;12.90;99.90
59128;DHT22;44912;52.754;5.994;2022-10-30T07:32:43;13.00;99.90
59128;DHT22;44912;52.754;5.994;2022-10-30T07:35:10;13.00;99.90
59128;DHT22;44912;52.754;5.994;2022-10-30T07:37:37;13.10;99.90
59128;DHT22;44912;52.754;5.994;2022-10-30T07:40:02;13.10;99.90
59128;DHT22;44912;52.754;5.994;2022-10-30T07:42:28;13.00;99.90
59128;DHT22;44912;52.754;5.994;2022-10-30T07:44:54;13.10;99.90
59128;DHT22;44912;52.754;5.994;2022-10-30T07:47:19;13.10;99.90
59128;DHT22;44912;52.754;5.994;2022-10-30T07:49:45;13.10;99.90
59128;DHT22;44912;52.754;5.994;2022-10-30T07:52:10;13.10;99.90
59128;DHT22;44912;52.754;5.994;2022-10-30T07:54:36;13.20;99.90
59128;DHT22;44912;52.754;5.994;2022-10-30T07:57:02;13.20;99.90
59128;DHT22;44912;52.754;5.994;2022-10-30T07:59:27;13.30;99.90
59128;DHT22;44912;52.754;5.994;2022-10-30T08:01:53;13.30;99.90
59128;DHT22;44912;52.754;5.994;2022-10-30T08:04:18;13.40;99.90
59128;DHT22;44912;52.754;5.994;2022-10-30T08:06:44;13.50;99.90
59128;DHT22;44912;52.754;5.994;2022-10-30T08:09:09;13.60;99.90
59128;DHT22;44912;52.754;5.994;2022-10-30T08:11:35;13.60;99.90
59128;DHT22;44912;52.754;5.994;2022-10-30T08:14:01;13.70;99.90
59128;DHT22;44912;52.754;5.994;2022-10-30T08:16:27;13.80;99.90
59128;DHT22;44912;52.754;5.994;2022-10-30T08:18:53;13.90;99.90
59128;DHT22;44912;52.754;5.994;2022-10-30T08:21:19;14.00;99.90
59128;DHT22;44912;52.754;5.994;2022-10-30T08:23:44;14.10;99.90
59128;DHT22;44912;52.754;5.994;2022-10-30T08:26:10;14.10;99.90
59128;DHT22;44912;52.754;5.994;2022-10-30T08:28:36;14.30;99.90
59128;DHT22;44912;52.754;5.994;2022-10-30T08:31:02;14.30;99.90
59128;DHT22;44912;52.754;5.994;2022-10-30T08:33:28;14.40;99.90
59128;DHT22;44912;52.754;5.994;2022-10-30T08:35:55;14.50;99.90
59128;DHT22;44912;52.754;5.994;2022-10-30T08:38:21;14.60;99.90
59128;DHT22;44912;52.754;5.994;2022-10-30T08:40:47;14.70;99.90
59128;DHT22;44912;52.754;5.994;2022-10-30T08:43:13;14.70;99.90
59128;DHT22;44912;52.754;5.994;2022-10-30T08:45:39;14.80;99.90
59128;DHT22;44912;52.754;5.994;2022-10-30T08:48:05;14.90;99.90
59128;DHT22;44912;52.754;5.994;2022-10-30T08:50:33;14.90;99.90
59128;DHT22;44912;52.754;5.994;2022-10-30T08:53:07;14.90;99.90
59128;DHT22;44912;52.754;5.994;2022-10-30T08:55:33;15.00;99.90
59128;DHT22;44912;52.754;5.994;2022-10-30T08:58:00;15.00;99.90
59128;DHT22;44912;52.754;5.994;2022-10-30T09:00:26;15.10;99.90
59128;DHT22;44912;52.754;5.994;2022-10-30T09:02:52;15.20;99.90
59128;DHT22;44912;52.754;5.994;2022-10-30T09:05:18;15.20;99.90
59128;DHT22;44912;52.754;5.994;2022-10-30T09:07:44;15.30;99.90
59128;DHT22;44912;52.754;5.994;2022-10-30T09:10:09;15.40;99.90
59128;DHT22;44912;52.754;5.994;2022-10-30T09:12:35;15.40;99.90
59128;DHT22;44912;52.754;5.994;2022-10-30T09:15:01;15.50;99.90
59128;DHT22;44912;52.754;5.994;2022-10-30T09:17:26;15.50;99.90
59128;DHT22;44912;52.754;5.994;2022-10-30T09:19:52;15.50;99.90
59128;DHT22;44912;52.754;5.994;2022-10-30T09:22:17;15.50;99.90
59128;DHT22;44912;52.754;5.994;2022-10-30T09:24:43;15.60;99.90
59128;DHT22;44912;52.754;5.994;2022-10-30T09:27:08;15.70;99.90
59128;DHT22;44912;52.754;5.994;2022-10-30T09:29:34;15.80;99.90
59128;DHT22;44912;52.754;5.994;2022-10-30T09:32:01;15.80;99.90
59128;DHT22;44912;52.754;5.994;2022-10-30T09:34:29;15.90;99.90
59128;DHT22;44912;52.754;5.994;2022-10-30T09:36:55;16.00;99.90
59128;DHT22;44912;52.754;5.994;2022-10-30T09:39:20;16.00;99.90
59128;DHT22;44912;52.754;5.994;2022-10-30T09:50:24;16.30;99.90
59128;DHT22;44912;52.754;5.994;2022-10-30T09:53:32;16.50;99.90
59128;DHT22;44912;52.754;5.994;2022-10-30T10:01:18;16.70;99.90
59128;DHT22;44912;52.754;5.994;2022-10-30T10:06:24;17.10;99.90
59128;DHT22;44912;52.754;5.994;2022-10-30T10:08:54;17.30;99.90
59128;DHT22;44912;52.754;5.994;2022-10-30T10:11:39;17.40;99.90
59128;DHT22;44912;52.754;5.994;2022-10-30T10:14:13;17.50;99.90
59128;DHT22;44912;52.754;5.994;2022-10-30T10:16:42;17.50;99.90
59128;DHT22;44912;52.754;5.994;2022-10-30T10:19:32;17.70;99.90
59128;DHT22;44912;52.754;5.994;2022-10-30T10:22:02;17.90;99.90
59128;DHT22;44912;52.754;5.994;2022-10-30T10:24:31;18.10;99.90
59128;DHT22;44912;52.754;5.994;2022-10-30T10:27:32;18.30;99.90
59128;DHT22;44912;52.754;5.994;2022-10-30T10:30:20;18.50;99.90
59128;DHT22;44912;52.754;5.994;2022-10-30T10:38:50;18.90;99.90
59128;DHT22;44912;52.754;5.994;2022-10-30T10:47:17;18.80;99.90
59128;DHT22;44912;52.754;5.994;2022-10-30T10:50:13;18.80;99.90
59128;DHT22;44912;52.754;5.994;2022-10-30T10:52:53;18.90;99.90
59128;DHT22;44912;52.754;5.994;2022-10-30T10:55:24;19.00;99.90
59128;DHT22;44912;52.754;5.994;2022-10-30T10:57:52;19.10;99.90
59128;DHT22;44912;52.754;5.994;2022-10-30T11:00:22;19.30;99.90
59128;DHT22;44912;52.754;5.994;2022-10-30T11:02:57;19.30;99.90
59128;DHT22;44912;52.754;5.994;2022-10-30T11:05:41;19.30;99.90
59128;DHT22;44912;52.754;5.994;2022-10-30T11:08:28;19.20;99.90
59128;DHT22;44912;52.754;5.994;2022-10-30T11:11:02;19.20;99.90
59128;DHT22;44912;52.754;5.994;2022-10-30T11:13:30;19.20;99.90
59128;DHT22;44912;52.754;5.994;2022-10-30T11:16:24;19.20;99.90
59128;DHT22;44912;52.754;5.994;2022-10-30T11:18:58;19.30;99.90
59128;DHT22;44912;52.754;5.994;2022-10-30T11:21:25;19.40;99.90
59128;DHT22;44912;52.754;5.994;2022-10-30T11:23:51;19.40;99.90
59128;DHT22;44912;52.754;5.994;2022-10-30T11:28:54;19.50;99.90
59128;DHT22;44912;52.754;5.994;2022-10-30T11:31:26;19.50;99.90
59128;DHT22;44912;52.754;5.994;2022-10-30T11:33:54;19.50;99.90
59128;DHT22;44912;52.754;5.994;2022-10-30T11:36:24;19.60;99.90
59128;DHT22;44912;52.754;5.994;2022-10-30T11:38:51;19.70;99.90
59128;DHT22;44912;52.754;5.994;2022-10-30T11:41:18;19.70;99.90
59128;DHT22;44912;52.754;5.994;2022-10-30T11:43:44;19.80;99.90
59128;DHT22;44912;52.754;5.994;2022-10-30T11:46:18;19.70;99.90
59128;DHT22;44912;52.754;5.994;2022-10-30T11:48:45;19.80;99.90
59128;DHT22;44912;52.754;5.994;2022-10-30T11:51:12;19.70;99.90
59128;DHT22;44912;52.754;5.994;2022-10-30T11:53:48;19.80;99.90
59128;DHT22;44912;52.754;5.994;2022-10-30T11:56:18;19.70;99.90
59128;DHT22;44912;52.754;5.994;2022-10-30T11:58:47;19.70;99.90
59128;DHT22;44912;52.754;5.994;2022-10-30T12:01:36;19.70;99.90
59128;DHT22;44912;52.754;5.994;2022-10-30T12:04:32;19.70;99.90
59128;DHT22;44912;52.754;5.994;2022-10-30T12:07:24;19.70;99.90
59128;DHT22;44912;52.754;5.994;2022-10-30T12:09:52;19.80;99.90
59128;DHT22;44912;52.754;5.994;2022-10-30T12:12:26;19.80;99.90
59128;DHT22;44912;52.754;5.994;2022-10-30T12:14:52;19.80;99.90
59128;DHT22;44912;52.754;5.994;2022-10-30T12:17:19;19.80;99.90
59128;DHT22;44912;52.754;5.994;2022-10-30T12:19:51;19.80;99.90
59128;DHT22;44912;52.754;5.994;2022-10-30T12:22:31;19.80;99.90
59128;DHT22;44912;52.754;5.994;2022-10-30T12:25:00;19.80;99.90
59128;DHT22;44912;52.754;5.994;2022-10-30T12:27:29;19.80;99.90
59128;DHT22;44912;52.754;5.994;2022-10-30T12:32:41;19.80;99.90
59128;DHT22;44912;52.754;5.994;2022-10-30T12:35:38;19.90;99.90
59128;DHT22;44912;52.754;5.994;2022-10-30T12:38:20;19.90;99.90
59128;DHT22;44912;52.754;5.994;2022-10-30T12:41:11;19.90;99.90
59128;DHT22;44912;52.754;5.994;2022-10-30T12:43:41;19.90;99.90
59128;DHT22;44912;52.754;5.994;2022-10-30T12:51:55;19.80;99.90
59128;DHT22;44912;52.754;5.994;2022-10-30T12:57:10;19.60;99.90
59128;DHT22;44912;52.754;5.994;2022-10-30T12:59:50;19.70;99.90
59128;DHT22;44912;52.754;5.994;2022-10-30T13:05:32;19.80;99.90
59128;DHT22;44912;52.754;5.994;2022-10-30T13:10:46;19.80;99.90
59128;DHT22;44912;52.754;5.994;2022-10-30T13:13:17;19.80;99.90
59128;DHT22;44912;52.754;5.994;2022-10-30T13:15:53;19.80;99.90
59128;DHT22;44912;52.754;5.994;2022-10-30T13:18:21;19.80;99.90
59128;DHT22;44912;52.754;5.994;2022-10-30T13:20:57;19.80;99.90
59128;DHT22;44912;52.754;5.994;2022-10-30T13:37:42;19.70;99.90
59128;DHT22;44912;52.754;5.994;2022-10-30T13:40:21;19.70;99.90
59128;DHT22;44912;52.754;5.994;2022-10-30T13:42:58;19.70;99.90
59128;DHT22;44912;52.754;5.994;2022-10-30T13:53:33;19.90;99.90
59128;DHT22;44912;52.754;5.994;2022-10-30T13:56:00;20.00;99.90
59128;DHT22;44912;52.754;5.994;2022-10-30T13:59:19;20.00;99.90
59128;DHT22;44912;52.754;5.994;2022-10-30T14:01:32;20.00;99.90
59128;DHT22;44912;52.754;5.994;2022-10-30T14:04:19;20.00;99.90
59128;DHT22;44912;52.754;5.994;2022-10-30T14:07:13;20.10;99.90
59128;DHT22;44912;52.754;5.994;2022-10-30T14:20:51;19.80;99.90
59128;DHT22;44912;52.754;5.994;2022-10-30T14:28:37;19.60;99.90
59128;DHT22;44912;52.754;5.994;2022-10-30T14:38:39;19.40;99.90
59128;DHT22;44912;52.754;5.994;2022-10-30T14:41:19;19.40;99.90
59128;DHT22;44912;52.754;5.994;2022-10-30T14:44:02;19.30;99.90
59128;DHT22;44912;52.754;5.994;2022-10-30T14:46:40;19.30;99.90
59128;DHT22;44912;52.754;5.994;2022-10-30T14:52:50;19.20;99.90
59128;DHT22;44912;52.754;5.994;2022-10-30T14:54:55;19.10;99.90
59128;DHT22;44912;52.754;5.994;2022-10-30T15:03:15;18.90;99.90
59128;DHT22;44912;52.754;5.994;2022-10-30T15:06:00;18.90;99.90
59128;DHT22;44912;52.754;5.994;2022-10-30T15:14:31;18.90;99.90
59128;DHT22;44912;52.754;5.994;2022-10-30T15:16:55;18.90;99.90
59128;DHT22;44912;52.754;5.994;2022-10-30T15:19:23;18.80;99.90
59128;DHT22;44912;52.754;5.994;2022-10-30T15:21:51;18.80;99.90
59128;DHT22;44912;52.754;5.994;2022-10-30T15:24:21;18.80;99.90
59128;DHT22;44912;52.754;5.994;2022-10-30T15:26:49;18.70;99.90
59128;DHT22;44912;52.754;5.994;2022-10-30T15:29:21;18.80;99.90
59128;DHT22;44912;52.754;5.994;2022-10-30T15:32:18;18.70;99.90
59128;DHT22;44912;52.754;5.994;2022-10-30T15:35:01;18.70;99.90
59128;DHT22;44912;52.754;5.994;2022-10-30T15:37:28;18.60;99.90
59128;DHT22;44912;52.754;5.994;2022-10-30T15:40:19;18.50;99.90
59128;DHT22;44912;52.754;5.994;2022-10-30T15:42:46;18.50;99.90
59128;DHT22;44912;52.754;5.994;2022-10-30T15:47:59;18.40;99.90
59128;DHT22;44912;52.754;5.994;2022-10-30T15:50:26;18.30;99.90
59128;DHT22;44912;52.754;5.994;2022-10-30T15:52:52;18.20;99.90
59128;DHT22;44912;52.754;5.994;2022-10-30T15:55:23;18.20;99.90
59128;DHT22;44912;52.754;5.994;2022-10-30T15:57:50;18.10;99.90
59128;DHT22;44912;52.754;5.994;2022-10-30T16:00:28;18.00;99.90
59128;DHT22;44912;52.754;5.994;2022-10-30T16:05:36;18.00;99.90
59128;DHT22;44912;52.754;5.994;2022-10-30T16:08:03;17.90;99.90
59128;DHT22;44912;52.754;5.994;2022-10-30T16:10:35;17.80;99.90
59128;DHT22;44912;52.754;5.994;2022-10-30T16:13:02;17.80;99.90
59128;DHT22;44912;52.754;5.994;2022-10-30T16:15:30;17.80;99.90
59128;DHT22;44912;52.754;5.994;2022-10-30T16:18:05;17.70;99.90
59128;DHT22;44912;52.754;5.994;2022-10-30T16:20:32;17.60;99.90
59128;DHT22;44912;52.754;5.994;2022-10-30T16:22:59;17.60;99.90
59128;DHT22;44912;52.754;5.994;2022-10-30T16:25:24;17.50;99.90
59128;DHT22;44912;52.754;5.994;2022-10-30T16:27:50;17.50;99.90
59128;DHT22;44912;52.754;5.994;2022-10-30T16:30:16;17.50;99.90
59128;DHT22;44912;52.754;5.994;2022-10-30T16:32:45;17.40;99.90
59128;DHT22;44912;52.754;5.994;2022-10-30T16:35:17;17.30;99.90
59128;DHT22;44912;52.754;5.994;2022-10-30T16:37:43;17.30;99.90
59128;DHT22;44912;52.754;5.994;2022-10-30T16:40:12;17.20;99.90
59128;DHT22;44912;52.754;5.994;2022-10-30T16:42:38;17.10;99.90
59128;DHT22;44912;52.754;5.994;2022-10-30T16:47:44;17.00;99.90
59128;DHT22;44912;52.754;5.994;2022-10-30T16:50:12;16.80;99.90
59128;DHT22;44912;52.754;5.994;2022-10-30T16:52:38;16.80;99.90
59128;DHT22;44912;52.754;5.994;2022-10-30T16:55:17;16.80;99.90
59128;DHT22;44912;52.754;5.994;2022-10-30T16:57:46;16.70;99.90
59128;DHT22;44912;52.754;5.994;2022-10-30T17:00:25;16.80;99.90
59128;DHT22;44912;52.754;5.994;2022-10-30T17:02:53;16.80;99.90
59128;DHT22;44912;52.754;5.994;2022-10-30T17:05:23;16.70;99.90
59128;DHT22;44912;52.754;5.994;2022-10-30T17:07:58;16.70;99.90
59128;DHT22;44912;52.754;5.994;2022-10-30T17:16:26;16.60;99.90
59128;DHT22;44912;52.754;5.994;2022-10-30T17:18:54;16.50;99.90
59128;DHT22;44912;52.754;5.994;2022-10-30T17:21:40;16.40;99.90
59128;DHT22;44912;52.754;5.994;2022-10-30T17:24:26;16.40;99.90
59128;DHT22;44912;52.754;5.994;2022-10-30T17:26:55;16.40;99.90
59128;DHT22;44912;52.754;5.994;2022-10-30T17:34:45;16.60;99.90
59128;DHT22;44912;52.754;5.994;2022-10-30T17:37:10;16.60;99.90
59128;DHT22;44912;52.754;5.994;2022-10-30T17:39:36;16.60;99.90
59128;DHT22;44912;52.754;5.994;2022-10-30T17:42:02;16.60;99.90
59128;DHT22;44912;52.754;5.994;2022-10-30T17:44:34;16.60;99.90
59128;DHT22;44912;52.754;5.994;2022-10-30T17:47:11;16.60;99.90
59128;DHT22;44912;52.754;5.994;2022-10-30T17:49:38;16.50;99.90
59128;DHT22;44912;52.754;5.994;2022-10-30T17:52:03;16.40;99.90
59128;DHT22;44912;52.754;5.994;2022-10-30T17:54:29;16.50;99.90
59128;DHT22;44912;52.754;5.994;2022-10-30T17:56:56;16.40;99.90
59128;DHT22;44912;52.754;5.994;2022-10-30T17:59:24;16.30;99.90
59128;DHT22;44912;52.754;5.994;2022-10-30T18:01:50;16.20;99.90
59128;DHT22;44912;52.754;5.994;2022-10-30T18:04:17;16.20;99.90
59128;DHT22;44912;52.754;5.994;2022-10-30T18:06:43;16.20;99.90
59128;DHT22;44912;52.754;5.994;2022-10-30T18:09:09;16.20;99.90